Time;durP1;ratioP1;P1;durP2;ratioP2;P2;SDS_P1;SDS_P2;PMS_P1;PMS_P2;Temp;Humidity;BMP_temperature;BMP_pressure;BME280_temperature;BME280_humidity;BME280_pressure;Samples;Min_cycle;Max_cycle;Signal;HPM_P1;HPM_P2
2022/04/09 00:02:08;;;;;;;11.73;10.37;;;;;;;1.82;97.70;99534.69;5094891;28;20452;-42
2022/04/09 00:04:35;;;;;;;10.97;9.50;;;;;;;1.86;98.20;99541.22;5095365;28;20460;-44
2022/04/09 00:07:04;;;;;;;11.50;10.20;;;;;;;1.87;98.67;99541.06;5094873;28;20425;-42
2022/04/09 00:09:31;;;;;;;11.00;9.87;;;;;;;1.86;99.25;99543.84;5094403;28;20820;-44
2022/04/09 00:11:59;;;;;;;13.97;10.63;;;;;;;1.85;99.66;99548.28;5094549;28;20439;-42
2022/04/09 00:14:26;;;;;;;11.23;9.30;;;;;;;1.85;99.44;99543.03;5094798;28;20475;-43
2022/04/09 00:16:54;;;;;;;14.80;11.50;;;;;;;1.83;99.57;99547.66;5094848;28;20792;-41
2022/04/09 00:19:23;;;;;;;14.07;9.70;;;;;;;1.81;100.00;99547.00;5094255;28;20461;-43
2022/04/09 00:21:51;;;;;;;19.83;11.20;;;;;;;1.82;100.00;99550.47;5094444;28;20442;-42
2022/04/09 00:24:19;;;;;;;21.93;9.60;;;;;;;1.84;99.79;99551.09;5094833;28;20461;-41
2022/04/09 00:26:46;;;;;;;11.13;10.00;;;;;;;1.86;99.98;99552.56;5094546;28;20433;-43
2022/04/09 00:29:14;;;;;;;15.63;11.10;;;;;;;1.88;100.00;99552.41;5094329;28;20433;-42
2022/04/09 00:31:42;;;;;;;12.30;9.43;;;;;;;1.89;100.00;99557.50;5094417;28;20438;-43
2022/04/09 00:34:09;;;;;;;15.90;9.87;;;;;;;1.90;100.00;99556.50;5094357;28;20469;-41
2022/04/09 00:36:38;;;;;;;15.00;10.37;;;;;;;1.93;100.00;99564.06;5094332;28;20429;-41
2022/04/09 00:39:06;;;;;;;9.33;8.30;;;;;;;1.94;100.00;99565.69;5094142;28;20425;-41
2022/04/09 00:41:33;;;;;;;12.07;8.93;;;;;;;1.99;100.00;99565.19;5094226;28;20429;-40
2022/04/09 00:44:01;;;;;;;13.73;9.30;;;;;;;2.03;100.00;99572.53;5094138;28;20990;-40
2022/04/09 00:46:29;;;;;;;9.53;8.67;;;;;;;2.09;100.00;99571.06;5086011;28;20437;-41
2022/04/09 00:48:56;;;;;;;11.33;8.90;;;;;;;2.14;100.00;99577.47;5091588;28;20799;-42
2022/04/09 00:51:24;;;;;;;9.90;9.00;;;;;;;2.15;100.00;99584.34;5093559;28;20465;-41
2022/04/09 00:53:55;;;;;;;12.00;8.87;;;;;;;2.12;100.00;99586.50;5094126;28;20477;-42
2022/04/09 00:56:25;;;;;;;14.73;9.13;;;;;;;2.12;100.00;99597.81;5074935;28;20960;-41
2022/04/09 00:58:55;;;;;;;15.30;8.30;;;;;;;2.11;100.00;99595.38;5090937;28;20962;-44
2022/04/09 01:01:24;;;;;;;11.43;8.27;;;;;;;2.14;100.00;99581.88;5093243;28;20489;-43
2022/04/09 01:03:52;;;;;;;9.20;8.30;;;;;;;2.15;100.00;99599.31;5093780;28;20972;-41
2022/04/09 01:06:20;;;;;;;16.10;9.20;;;;;;;2.16;100.00;99593.88;5093983;28;20437;-41
2022/04/09 01:08:48;;;;;;;11.33;8.27;;;;;;;2.17;100.00;99599.97;5093942;28;20433;-41
2022/04/09 01:11:18;;;;;;;15.10;8.97;;;;;;;2.15;100.00;99596.69;5093092;28;20468;-41
2022/04/09 01:13:45;;;;;;;12.63;9.43;;;;;;;2.12;100.00;99599.66;5093501;28;20484;-42
2022/04/09 01:16:13;;;;;;;17.83;8.53;;;;;;;2.11;100.00;99605.91;5093639;28;20433;-41
2022/04/09 01:18:41;;;;;;;14.00;9.10;;;;;;;2.10;100.00;99606.88;5086069;28;20450;-42
2022/04/09 01:21:09;;;;;;;10.37;9.30;;;;;;;2.06;100.00;99614.28;5069907;28;20462;-41
2022/04/09 01:23:38;;;;;;;15.80;9.47;;;;;;;2.05;100.00;99617.91;5070774;28;20503;-41
2022/04/09 01:26:06;;;;;;;20.87;8.90;;;;;;;2.03;100.00;99614.63;5072740;28;20449;-41
2022/04/09 01:28:35;;;;;;;20.23;8.47;;;;;;;2.00;99.82;99624.69;5073274;28;20431;-41
2022/04/09 01:31:02;;;;;;;10.90;7.43;;;;;;;1.98;99.56;99627.47;5072417;28;20576;-41
2022/04/09 01:33:30;;;;;;;17.07;8.10;;;;;;;1.93;99.61;99624.53;5073102;28;20480;-41
2022/04/09 01:35:58;;;;;;;10.20;8.53;;;;;;;1.88;99.65;99626.81;5073080;28;20434;-44
2022/04/09 01:38:25;;;;;;;9.40;7.90;;;;;;;1.84;99.42;99630.78;5073006;28;20437;-41
2022/04/09 01:40:55;;;;;;;10.43;7.60;;;;;;;1.81;99.56;99639.00;5072149;28;20466;-42
2022/04/09 01:43:22;;;;;;;13.37;8.07;;;;;;;1.77;99.50;99637.69;5072749;28;20466;-42
2022/04/09 01:45:50;;;;;;;8.87;8.07;;;;;;;1.74;99.21;99635.41;5081295;28;20433;-44
2022/04/09 01:48:17;;;;;;;17.47;10.57;;;;;;;1.72;99.29;99637.38;5084548;28;20428;-41
2022/04/09 01:50:46;;;;;;;16.33;8.77;;;;;;;1.68;99.26;99643.94;5092291;28;20466;-40
2022/04/09 01:53:13;;;;;;;13.97;9.50;;;;;;;1.66;99.59;99638.88;5092778;28;20449;-40
2022/04/09 01:55:41;;;;;;;10.30;8.37;;;;;;;1.65;99.48;99639.03;5092702;28;20962;-40
2022/04/09 01:58:10;;;;;;;13.03;8.60;;;;;;;1.61;99.94;99643.78;5093204;28;20505;-41
2022/04/09 02:00:38;;;;;;;14.27;9.20;;;;;;;1.60;99.88;99647.41;5092134;28;20457;-41
2022/04/09 02:03:06;;;;;;;17.70;8.70;;;;;;;1.60;100.00;99647.41;5092730;28;20481;-41
2022/04/09 02:05:34;;;;;;;20.20;10.00;;;;;;;1.60;100.00;99646.59;5092636;28;20434;-42
2022/04/09 02:08:02;;;;;;;10.93;8.83;;;;;;;1.57;100.00;99652.19;5092587;28;20436;-41
2022/04/09 02:10:31;;;;;;;12.80;9.43;;;;;;;1.57;100.00;99653.00;5092073;28;20468;-40
2022/04/09 02:12:59;;;;;;;14.33;9.17;;;;;;;1.56;100.00;99653.97;5092619;28;20450;-44
2022/04/09 02:15:28;;;;;;;12.80;8.73;;;;;;;1.56;100.00;99653.97;5092551;28;20473;-41
2022/04/09 02:17:55;;;;;;;16.97;10.00;;;;;;;1.56;100.00;99661.88;5092523;28;20422;-42
2022/04/09 02:20:23;;;;;;;14.97;8.90;;;;;;;1.56;100.00;99663.66;5091885;28;20474;-42
2022/04/09 02:22:50;;;;;;;10.60;8.40;;;;;;;1.58;100.00;99664.34;5092426;28;20812;-41
2022/04/09 02:25:18;;;;;;;12.13;7.77;;;;;;;1.59;100.00;99669.41;5092835;28;20433;-41
2022/04/09 02:27:46;;;;;;;15.83;8.30;;;;;;;1.61;100.00;99666.63;5092455;28;20425;-41
2022/04/09 02:30:14;;;;;;;8.80;7.37;;;;;;;1.65;100.00;99674.00;5091527;28;21143;-41
2022/04/09 02:32:44;;;;;;;24.80;9.33;;;;;;;1.67;100.00;99674.66;5092114;28;20536;-41
2022/04/09 02:35:13;;;;;;;23.80;8.50;;;;;;;1.67;100.00;99672.03;5092031;28;20480;-41
2022/04/09 02:37:40;;;;;;;13.23;9.13;;;;;;;1.72;100.00;99675.97;5092358;28;20428;-41
2022/04/09 02:40:10;;;;;;;10.77;8.10;;;;;;;1.72;100.00;99674.19;5091690;28;20459;-41
2022/04/09 02:42:38;;;;;;;11.00;8.23;;;;;;;1.72;100.00;99673.34;5091863;28;20459;-40
2022/04/09 02:45:07;;;;;;;11.90;7.33;;;;;;;1.75;100.00;99673.84;5092069;28;20430;-41
2022/04/09 02:47:35;;;;;;;13.60;7.97;;;;;;;1.77;100.00;99679.75;5091901;28;20459;-40
2022/04/09 02:50:07;;;;;;;12.97;7.30;;;;;;;1.79;100.00;99676.97;5091697;28;20818;-41
2022/04/09 02:52:35;;;;;;;14.23;8.53;;;;;;;1.78;100.00;99683.19;5092806;28;20449;-41
2022/04/09 02:55:05;;;;;;;14.17;10.10;;;;;;;1.80;100.00;99686.47;5092270;28;20547;-43
2022/04/09 02:57:33;;;;;;;13.33;8.37;;;;;;;1.78;100.00;99684.03;5091960;28;20464;-41
2022/04/09 03:00:00;;;;;;;11.60;7.47;;;;;;;1.79;100.00;99679.59;5091438;28;20450;-41
2022/04/09 03:02:28;;;;;;;9.03;8.13;;;;;;;1.79;100.00;99684.84;5091625;28;20449;-41
2022/04/09 03:04:56;;;;;;;14.80;8.60;;;;;;;1.82;100.00;99685.34;5092027;28;20458;-44
2022/04/09 03:07:26;;;;;;;10.20;8.03;;;;;;;1.87;100.00;99684.84;5091731;28;20944;-45
2022/04/09 03:09:53;;;;;;;9.73;8.20;;;;;;;1.94;100.00;99694.50;5091477;28;20820;-41
2022/04/09 03:12:21;;;;;;;9.97;7.43;;;;;;;2.06;100.00;99701.06;5091396;28;20971;-42
2022/04/09 03:14:48;;;;;;;13.47;8.43;;;;;;;2.19;100.00;99714.53;5091454;28;20990;-42
2022/04/09 03:17:16;;;;;;;8.53;7.50;;;;;;;2.36;100.00;99730.28;5091855;28;20430;-41
2022/04/09 03:19:43;;;;;;;10.93;7.20;;;;;;;2.54;99.39;99729.03;5091414;28;20825;-41
2022/04/09 03:22:11;;;;;;;10.63;8.17;;;;;;;2.66;98.82;99743.47;5091506;28;20574;-41
2022/04/09 03:24:40;;;;;;;11.43;8.30;;;;;;;2.74;99.46;99740.84;5091719;28;20793;-41
2022/04/09 03:27:07;;;;;;;7.80;7.10;;;;;;;2.79;100.00;99750.84;5091786;28;20801;-41
2022/04/09 03:29:35;;;;;;;10.93;9.83;;;;;;;2.79;100.00;99759.56;5090992;28;20996;-40
2022/04/09 03:32:03;;;;;;;19.13;10.97;;;;;;;2.79;100.00;99750.84;5091611;28;20797;-44
2022/04/09 03:34:30;;;;;;;10.27;9.23;;;;;;;2.69;100.00;99763.38;5091733;28;20499;-41
2022/04/09 03:36:58;;;;;;;10.20;9.20;;;;;;;2.65;100.00;99765.56;5091711;28;20440;-41
2022/04/09 03:39:26;;;;;;;11.17;10.20;;;;;;;2.65;100.00;99762.09;5091111;28;20461;-41
2022/04/09 03:41:55;;;;;;;10.77;9.17;;;;;;;2.67;100.00;99771.47;5090996;28;20429;-41
2022/04/09 03:44:42;;;;;;;10.30;9.23;;;;;;;2.68;99.96;99770.47;5090016;28;20425;-41
2022/04/09 03:47:10;;;;;;;9.93;9.00;;;;;;;2.56;99.15;99784.16;5082389;28;20426;-45
2022/04/09 03:49:37;;;;;;;13.57;12.03;;;;;;;2.31;98.17;99775.50;5090977;28;20461;-41
2022/04/09 03:52:05;;;;;;;11.60;11.00;;;;;;;2.17;96.75;99769.13;5091046;28;21034;-42
2022/04/09 03:54:35;;;;;;;11.27;10.67;;;;;;;2.18;95.16;99768.09;5091244;28;20436;-41
2022/04/09 03:57:04;;;;;;;12.17;11.53;;;;;;;2.17;94.98;99763.84;5091536;28;20808;-42
2022/04/09 03:59:32;;;;;;;12.00;11.50;;;;;;;2.21;94.64;99769.59;5090948;28;21013;-41
2022/04/09 04:02:00;;;;;;;11.60;11.20;;;;;;;2.18;95.50;99775.19;5091142;28;20524;-47
2022/04/09 04:04:27;;;;;;;11.80;11.20;;;;;;;2.14;96.08;99779.13;5091406;28;20429;-44
2022/04/09 04:06:55;;;;;;;11.53;10.93;;;;;;;2.06;96.87;99774.69;5091212;28;20438;-41
2022/04/09 04:09:23;;;;;;;11.70;11.20;;;;;;;2.01;97.84;99776.19;5090912;28;20455;-41
2022/04/09 04:11:50;;;;;;;11.67;11.00;;;;;;;1.93;97.64;99765.66;5089736;28;20954;-41
2022/04/09 04:14:20;;;;;;;10.70;10.30;;;;;;;1.87;97.08;99769.78;5087131;28;20500;-42
2022/04/09 04:16:47;;;;;;;12.13;11.40;;;;;;;1.84;96.98;99769.28;5094832;28;20476;-43
2022/04/09 04:19:15;;;;;;;11.43;10.93;;;;;;;1.79;95.90;99779.47;5094269;28;20436;-41
2022/04/09 04:21:42;;;;;;;12.60;11.73;;;;;;;1.75;95.89;99776.34;5094904;28;20434;-41
2022/04/09 04:24:10;;;;;;;12.93;12.20;;;;;;;1.73;95.81;99778.34;5094940;28;20433;-46
2022/04/09 04:26:38;;;;;;;12.43;11.80;;;;;;;1.75;94.81;99772.91;5094843;28;20431;-41
2022/04/09 04:29:05;;;;;;;13.27;12.53;;;;;;;1.78;93.31;99783.09;5094236;28;20436;-41
2022/04/09 04:31:34;;;;;;;15.23;13.77;;;;;;;1.81;93.07;99783.59;5094327;28;20429;-41
2022/04/09 04:34:02;;;;;;;13.87;13.17;;;;;;;1.81;93.49;99786.22;5094494;28;20481;-42
2022/04/09 04:36:30;;;;;;;19.33;15.67;;;;;;;1.79;94.01;99797.88;5094617;28;20473;-41
2022/04/09 04:38:57;;;;;;;20.27;15.23;;;;;;;1.79;93.97;99784.72;5094716;28;20433;-44
2022/04/09 04:41:25;;;;;;;15.77;14.10;;;;;;;1.82;93.56;99787.88;5093708;28;20461;-44
2022/04/09 04:43:52;;;;;;;13.00;12.40;;;;;;;1.83;93.71;99793.91;5094638;28;20464;-43
2022/04/09 04:46:20;;;;;;;12.77;12.17;;;;;;;1.83;94.28;99807.06;5083177;28;20958;-44
2022/04/09 04:48:49;;;;;;;13.17;12.40;;;;;;;1.85;94.48;99813.00;5078105;28;20479;-45
2022/04/09 04:51:17;;;;;;;13.17;12.37;;;;;;;1.84;94.98;99812.16;5073307;28;20469;-45
2022/04/09 04:53:44;;;;;;;13.43;12.63;;;;;;;1.89;94.52;99806.41;5074153;28;20447;-46
2022/04/09 04:56:13;;;;;;;13.23;12.13;;;;;;;1.94;94.75;99802.31;5073720;28;20991;-44
2022/04/09 04:58:40;;;;;;;13.23;12.33;;;;;;;2.03;94.33;99800.53;5074158;28;20440;-41
2022/04/09 05:01:08;;;;;;;12.93;12.07;;;;;;;2.16;94.19;99811.34;5073220;28;20829;-41
2022/04/09 05:03:39;;;;;;;12.77;11.87;;;;;;;2.36;93.06;99801.31;5073879;28;20450;-41
2022/04/09 05:06:08;;;;;;;16.20;9.93;;;;;;;2.84;89.01;99805.63;5074168;28;20956;-47
2022/04/09 05:08:36;;;;;;;10.17;9.20;;;;;;;3.37;87.07;99813.63;5073656;28;20434;-46
2022/04/09 05:11:03;;;;;;;9.83;8.77;;;;;;;3.96;88.84;99816.53;5073175;28;20462;-42
2022/04/09 05:13:31;;;;;;;7.73;6.87;;;;;;;4.49;96.57;99824.34;5073691;28;20451;-43
2022/04/09 05:15:59;;;;;;;9.87;6.80;;;;;;;5.15;97.42;99818.16;5073504;28;20973;-48
2022/04/09 05:18:26;;;;;;;5.53;5.13;;;;;;;5.84;100.00;99827.31;5073718;28;20444;-45
2022/04/09 05:20:54;;;;;;;6.00;5.40;;;;;;;6.32;100.00;99838.16;5072397;28;20553;-45
2022/04/09 05:23:23;;;;;;;6.60;6.10;;;;;;;6.01;94.18;99841.13;5072834;28;20454;-42
2022/04/09 05:25:51;;;;;;;10.43;7.73;;;;;;;5.63;89.06;99853.72;5073189;28;20441;-43
2022/04/09 05:28:18;;;;;;;8.50;7.80;;;;;;;5.29;88.88;99854.31;5073585;28;20784;-44
2022/04/09 05:30:46;;;;;;;8.73;8.03;;;;;;;5.02;91.34;99845.22;5072502;28;20832;-42
2022/04/09 05:33:14;;;;;;;10.73;7.83;;;;;;;4.87;92.70;99859.44;5073092;28;20541;-43
2022/04/09 05:35:41;;;;;;;8.47;7.83;;;;;;;4.73;93.28;99862.88;5073151;28;20474;-46
2022/04/09 05:38:10;;;;;;;7.63;7.13;;;;;;;5.27;96.93;99858.16;5073079;28;20430;-45
2022/04/09 05:40:39;;;;;;;6.03;5.43;;;;;;;6.44;97.68;99860.47;5072398;28;20485;-44
2022/04/09 05:43:07;;;;;;;4.90;4.43;;;;;;;7.36;88.69;99853.91;5072937;28;20485;-45
2022/04/09 05:45:34;;;;;;;5.63;5.20;;;;;;;8.02;79.91;99849.66;5079194;28;20434;-43
2022/04/09 05:48:03;;;;;;;6.10;5.70;;;;;;;7.24;76.41;99872.22;5083292;28;20433;-45
2022/04/09 05:50:31;;;;;;;6.67;6.10;;;;;;;6.33;78.12;99875.03;5072148;28;20541;-43
2022/04/09 05:52:58;;;;;;;6.87;6.50;;;;;;;5.54;82.45;99881.28;5072631;28;20458;-43
2022/04/09 05:55:26;;;;;;;7.83;7.07;;;;;;;5.21;86.23;99890.59;5072511;28;20806;-44
2022/04/09 05:57:55;;;;;;;8.60;8.20;;;;;;;4.66;92.17;99894.47;5072847;28;20430;-45
2022/04/09 06:00:22;;;;;;;8.73;8.27;;;;;;;4.21;97.04;99892.69;5072032;28;20462;-44
2022/04/09 06:02:50;;;;;;;10.50;9.50;;;;;;;3.90;99.03;99886.66;5072418;28;20461;-43
2022/04/09 06:05:18;;;;;;;10.50;9.80;;;;;;;3.77;99.42;99875.84;5072547;28;20440;-47
2022/04/09 06:07:46;;;;;;;9.97;9.33;;;;;;;3.86;100.00;99888.81;5072422;28;20425;-44
2022/04/09 06:10:14;;;;;;;9.30;8.90;;;;;;;3.95;99.50;99894.84;5072023;28;20472;-44
2022/04/09 06:12:42;;;;;;;8.67;8.20;;;;;;;4.15;100.00;99897.88;5072417;28;20489;-44
2022/04/09 06:15:12;;;;;;;9.17;8.47;;;;;;;4.45;100.00;99900.41;5072484;28;20472;-45
2022/04/09 06:17:40;;;;;;;8.57;7.67;;;;;;;4.63;99.82;99904.59;5072404;28;20836;-42
2022/04/09 06:20:09;;;;;;;8.57;7.97;;;;;;;4.62;97.63;99927.53;5079093;28;20461;-43
2022/04/09 06:22:37;;;;;;;10.73;9.80;;;;;;;4.12;99.33;99924.59;5087220;28;21055;-46
2022/04/09 06:25:06;;;;;;;9.80;9.20;;;;;;;3.82;99.82;99944.72;5092614;28;20433;-44
2022/04/09 06:27:37;;;;;;;13.07;9.33;;;;;;;3.93;100.00;99928.50;5092648;28;20425;-42
2022/04/09 06:30:06;;;;;;;9.70;9.10;;;;;;;4.02;100.00;99916.91;5092290;28;20977;-46
2022/04/09 06:32:35;;;;;;;8.53;8.00;;;;;;;4.03;100.00;99923.00;5091979;28;20810;-43
2022/04/09 06:35:02;;;;;;;9.20;8.40;;;;;;;4.14;100.00;99931.34;5092244;28;21199;-43
2022/04/09 06:37:30;;;;;;;10.00;9.40;;;;;;;4.19;100.00;99941.38;5092488;28;20484;-44
2022/04/09 06:39:57;;;;;;;9.60;9.00;;;;;;;4.27;99.85;99928.94;5092093;28;20461;-44
2022/04/09 06:42:25;;;;;;;10.30;8.30;;;;;;;4.36;99.79;99940.28;5091729;28;20461;-47
2022/04/09 06:44:52;;;;;;;7.40;7.03;;;;;;;4.44;99.31;99919.91;5091719;28;20438;-46
2022/04/09 06:47:20;;;;;;;6.67;6.37;;;;;;;4.46;98.73;99940.84;5068801;28;20425;-43
2022/04/09 06:49:49;;;;;;;8.50;7.00;;;;;;;4.45;98.17;99933.91;5083241;28;20535;-43
2022/04/09 06:52:17;;;;;;;6.43;6.03;;;;;;;4.47;97.33;99931.94;5091709;28;20964;-44
2022/04/09 06:54:44;;;;;;;5.83;5.40;;;;;;;4.56;97.92;99935.34;5092202;28;20433;-47
2022/04/09 06:57:12;;;;;;;6.53;5.77;;;;;;;4.95;98.80;99942.09;5091900;28;20979;-45
2022/04/09 06:59:39;;;;;;;7.43;6.00;;;;;;;5.84;98.51;99933.13;5091477;28;20963;-43
2022/04/09 07:02:07;;;;;;;6.20;5.80;;;;;;;6.90;98.61;99932.38;5091581;28;20449;-46
2022/04/09 07:04:35;;;;;;;8.50;5.90;;;;;;;7.79;92.67;99934.13;5092204;28;20461;-45
2022/04/09 07:07:04;;;;;;;8.70;5.70;;;;;;;8.81;90.84;99935.56;5092309;28;20788;-43
2022/04/09 07:09:32;;;;;;;6.67;6.17;;;;;;;9.42;78.84;99925.47;5091305;28;20464;-45
2022/04/09 07:11:59;;;;;;;6.63;6.13;;;;;;;9.85;74.96;99938.25;5091558;28;20433;-44
2022/04/09 07:14:27;;;;;;;6.00;5.60;;;;;;;10.15;72.03;99942.03;5091758;28;20460;-44
2022/04/09 07:16:58;;;;;;;6.10;5.70;;;;;;;10.40;68.55;99950.91;5092112;28;20495;-43
2022/04/09 07:19:26;;;;;;;7.00;6.60;;;;;;;10.26;67.53;99951.19;5091363;28;20454;-45
2022/04/09 07:21:54;;;;;;;7.03;6.23;;;;;;;10.05;67.13;99952.28;5091690;28;20434;-44
2022/04/09 07:24:24;;;;;;;8.00;5.67;;;;;;;9.81;68.56;99967.13;5091935;28;20430;-45
2022/04/09 07:26:51;;;;;;;6.33;5.80;;;;;;;9.61;69.42;99970.88;5091539;28;20435;-44
2022/04/09 07:29:19;;;;;;;6.83;6.30;;;;;;;9.54;69.93;99962.91;5091101;28;20928;-44
2022/04/09 07:31:47;;;;;;;6.73;6.13;;;;;;;9.44;70.61;99967.84;5091606;28;20429;-44
2022/04/09 07:34:16;;;;;;;6.63;6.10;;;;;;;9.28;71.21;99977.09;5091581;28;20483;-44
2022/04/09 07:36:43;;;;;;;7.43;6.70;;;;;;;8.95;71.22;99972.81;5091507;28;20465;-47
2022/04/09 07:39:11;;;;;;;7.10;6.40;;;;;;;8.57;71.31;99978.69;5091550;28;20429;-45
2022/04/09 07:41:40;;;;;;;11.00;6.70;;;;;;;8.61;73.49;99974.63;5091177;28;20436;-47
2022/04/09 07:44:08;;;;;;;8.40;5.93;;;;;;;8.65;73.42;99977.69;5091312;28;20471;-44
2022/04/09 07:46:35;;;;;;;6.50;6.00;;;;;;;8.65;72.06;99983.00;5083034;28;20447;-43
2022/04/09 07:49:03;;;;;;;11.37;7.00;;;;;;;8.66;72.88;99982.00;5076823;28;20473;-48
2022/04/09 07:51:30;;;;;;;7.27;6.47;;;;;;;8.22;73.41;99991.25;5074834;28;20448;-46
2022/04/09 07:53:58;;;;;;;6.30;5.67;;;;;;;7.82;73.97;99992.91;5074838;28;20451;-46
2022/04/09 07:56:26;;;;;;;6.70;6.13;;;;;;;7.67;75.03;99994.09;5075084;28;20440;-47
2022/04/09 07:58:54;;;;;;;5.20;4.87;;;;;;;7.50;75.92;99995.38;5075518;28;20473;-45
2022/04/09 08:01:22;;;;;;;6.07;5.67;;;;;;;7.51;77.63;100008.47;5073999;28;20470;-42
2022/04/09 08:03:50;;;;;;;6.13;5.50;;;;;;;7.40;78.17;100005.53;5074915;28;20504;-44
2022/04/09 08:06:17;;;;;;;6.30;5.90;;;;;;;7.72;78.81;100003.09;5074737;28;20434;-46
2022/04/09 08:08:45;;;;;;;9.97;6.10;;;;;;;7.84;76.88;100015.81;5074748;28;20913;-43
2022/04/09 08:11:13;;;;;;;11.63;5.90;;;;;;;7.92;76.87;100020.94;5074196;28;20545;-43
2022/04/09 08:13:40;;;;;;;5.83;5.33;;;;;;;7.76;76.01;100020.25;5075028;28;20453;-46
2022/04/09 08:16:09;;;;;;;7.10;5.20;;;;;;;8.03;75.47;100018.56;5074383;28;20461;-45
2022/04/09 08:18:39;;;;;;;17.97;6.30;;;;;;;8.19;75.73;100023.53;5074538;28;20496;-45
2022/04/09 08:21:07;;;;;;;9.40;5.43;;;;;;;8.05;74.56;100037.78;5073679;28;21206;-44
2022/04/09 08:23:35;;;;;;;18.80;6.40;;;;;;;8.42;76.27;100027.72;5074638;28;20454;-46
2022/04/09 08:26:03;;;;;;;7.43;5.40;;;;;;;8.41;72.38;100026.91;5074643;28;20434;-42
2022/04/09 08:28:33;;;;;;;6.10;5.50;;;;;;;8.38;71.77;100034.44;5074916;28;20430;-44
2022/04/09 08:31:00;;;;;;;6.53;5.37;;;;;;;8.48;72.24;100029.59;5073249;28;20466;-47
2022/04/09 08:33:30;;;;;;;5.67;5.07;;;;;;;8.57;71.58;100021.22;5074136;28;20465;-46
2022/04/09 08:35:57;;;;;;;8.87;5.20;;;;;;;8.81;68.02;100019.84;5074640;28;20786;-46
2022/04/09 08:38:25;;;;;;;7.47;6.90;;;;;;;9.31;71.38;100023.75;5074678;28;20474;-43
2022/04/09 08:40:52;;;;;;;7.00;6.50;;;;;;;9.32;70.14;100026.19;5073557;28;20557;-44
2022/04/09 08:43:20;;;;;;;6.60;6.00;;;;;;;9.20;69.01;100038.47;5074234;28;20462;-47
2022/04/09 08:45:49;;;;;;;6.83;5.90;;;;;;;8.78;69.92;100029.03;5073825;28;20438;-46
2022/04/09 08:48:21;;;;;;;11.20;4.90;;;;;;;8.76;68.65;100027.59;5073990;28;20427;-42
2022/04/09 08:50:51;;;;;;;8.53;4.70;;;;;;;8.10;67.80;100043.28;5073419;28;20806;-44
2022/04/09 08:53:19;;;;;;;6.50;4.63;;;;;;;8.36;68.97;100039.97;5071901;28;20995;-44
2022/04/09 08:55:48;;;;;;;7.43;4.80;;;;;;;8.71;67.08;100038.03;5073631;28;20438;-44
2022/04/09 08:58:15;;;;;;;4.90;4.70;;;;;;;9.08;67.20;100045.41;5073155;28;20480;-45
2022/04/09 09:00:45;;;;;;;8.47;6.07;;;;;;;9.18;64.82;100053.00;5073145;28;20468;-44
2022/04/09 09:03:15;;;;;;;8.10;6.60;;;;;;;9.09;67.07;100056.88;5074032;28;20450;-47
2022/04/09 09:05:45;;;;;;;7.63;6.87;;;;;;;9.29;67.22;100069.16;5073838;28;20870;-44
2022/04/09 09:08:36;;;;;;;6.50;5.90;;;;;;;7.90;69.77;100098.13;5073404;28;20796;-43
2022/04/09 09:11:03;;;;;;;10.00;9.03;;;;;;;6.76;79.72;100129.34;5072588;28;21007;-46
2022/04/09 09:13:46;;;;;;;12.33;11.63;;;;;;;5.72;85.14;100130.38;5073873;28;20454;-45
2022/04/09 09:16:22;;;;;;;14.33;13.63;;;;;;;4.84;90.88;100163.56;5073723;28;20436;-44
2022/04/09 09:18:51;;;;;;;27.10;25.87;;;;;;;4.23;94.78;100132.69;5073187;28;21010;-42
2022/04/09 09:21:23;;;;;;;25.77;24.50;;;;;;;4.20;95.07;100123.28;5075123;28;20563;-45
2022/04/09 09:23:53;;;;;;;19.77;19.17;;;;;;;4.62;96.06;100138.78;5079287;28;20442;-45
2022/04/09 09:26:22;;;;;;;19.77;18.83;;;;;;;4.98;94.50;100131.16;5066462;28;20449;-45
2022/04/09 09:28:55;;;;;;;18.10;17.13;;;;;;;5.40;94.20;100128.84;5078597;28;20430;-44
2022/04/09 09:31:47;;;;;;;16.70;16.00;;;;;;;5.74;93.08;100138.13;5080478;28;20988;-44
2022/04/09 09:34:16;;;;;;;17.87;16.77;;;;;;;5.70;93.66;100136.84;5059359;28;20470;-44
2022/04/09 09:36:44;;;;;;;17.83;16.60;;;;;;;5.18;92.35;100177.25;5072423;28;20797;-44
2022/04/09 09:39:15;;;;;;;21.90;20.97;;;;;;;4.87;95.90;100150.03;5085147;28;20480;-44
2022/04/09 09:41:51;;;;;;;18.87;17.90;;;;;;;4.78;97.71;100162.44;5088814;28;20433;-46
2022/04/09 09:44:21;;;;;;;17.50;16.57;;;;;;;4.72;99.07;100170.28;5078783;28;20417;-46
2022/04/09 09:46:50;;;;;;;15.77;14.47;;;;;;;4.65;99.37;100172.78;5081113;28;20437;-46
2022/04/09 09:49:20;;;;;;;12.33;11.57;;;;;;;4.69;98.52;100171.41;5078071;28;20426;-45
2022/04/09 09:52:03;;;;;;;13.93;13.23;;;;;;;4.69;98.64;100179.34;5084437;28;20437;-42
2022/04/09 09:54:32;;;;;;;12.97;12.23;;;;;;;4.97;98.54;100182.34;5083074;28;20529;-42
2022/04/09 09:57:00;;;;;;;10.53;9.77;;;;;;;5.32;95.93;100180.94;5071881;28;20441;-44
2022/04/09 09:59:30;;;;;;;10.23;9.83;;;;;;;5.84;97.40;100173.09;5079313;28;20537;-45
2022/04/09 10:01:59;;;;;;;7.73;7.20;;;;;;;5.79;90.21;100178.09;5076388;28;20427;-43
2022/04/09 10:04:27;;;;;;;6.40;6.03;;;;;;;6.12;90.10;100168.88;5081214;28;20461;-47
2022/04/09 10:06:55;;;;;;;5.07;4.77;;;;;;;6.67;87.83;100168.38;5087833;28;20444;-47
2022/04/09 10:09:28;;;;;;;10.40;5.43;;;;;;;6.97;86.05;100150.59;5077853;28;20457;-48
2022/04/09 10:11:59;;;;;;;8.13;5.33;;;;;;;7.06;85.38;100160.06;5080519;28;20435;-49
2022/04/09 10:14:32;;;;;;;6.10;4.70;;;;;;;7.00;85.85;100164.28;5080992;28;20429;-46
2022/04/09 10:17:03;;;;;;;5.30;4.67;;;;;;;7.74;86.22;100162.13;5075212;28;20419;-45
2022/04/09 10:19:31;;;;;;;10.20;4.90;;;;;;;7.69;79.30;100159.22;5081745;28;20461;-46
2022/04/09 10:22:00;;;;;;;5.70;4.83;;;;;;;7.76;79.83;100166.22;5090606;28;20436;-43
2022/04/09 10:24:28;;;;;;;5.27;4.73;;;;;;;7.21;79.43;100176.75;5081955;28;20435;-48
2022/04/09 10:26:59;;;;;;;13.83;3.23;;;;;;;6.93;80.47;100184.59;5079636;28;20437;-42
2022/04/09 10:29:27;;;;;;;5.03;4.53;;;;;;;7.07;76.67;100193.53;5079875;28;20485;-45
2022/04/09 10:31:55;;;;;;;4.37;3.97;;;;;;;6.84;75.95;100209.56;5090629;28;20433;-46
2022/04/09 10:34:22;;;;;;;10.67;10.27;;;;;;;5.66;81.73;100220.19;5080147;28;20437;-46
2022/04/09 10:37:04;;;;;;;29.70;28.20;;;;;;;5.12;92.22;100253.78;5078655;28;20430;-45
2022/04/09 10:39:45;;;;;;;30.50;28.30;;;;;;;5.23;90.57;100234.88;5083870;28;20535;-47
2022/04/09 10:42:48;;;;;;;28.67;27.07;;;;;;;5.15;87.75;100232.28;5085433;28;20461;-43
2022/04/09 10:45:16;;;;;;;26.47;23.97;;;;;;;5.08;89.23;100221.56;5078980;28;20528;-41
2022/04/09 10:48:05;;;;;;;24.47;22.33;;;;;;;5.14;87.83;100254.44;5073017;28;20431;-43
2022/04/09 10:50:57;;;;;;;23.50;22.30;;;;;;;5.08;84.30;100228.72;5076430;28;20471;-46
2022/04/09 10:53:27;;;;;;;24.23;22.43;;;;;;;5.25;86.98;100239.00;5074191;28;20453;-47
2022/04/09 10:56:14;;;;;;;24.20;22.37;;;;;;;5.73;89.39;100245.78;5083941;28;20438;-45
2022/04/09 10:59:05;;;;;;;24.43;22.30;;;;;;;5.94;86.39;100248.59;5087824;28;20473;-46
2022/04/09 11:01:50;;;;;;;23.37;21.33;;;;;;;6.13;83.51;100239.34;5077826;28;20948;-44
2022/04/09 11:04:41;;;;;;;22.10;20.60;;;;;;;6.48;82.71;100233.34;5071100;28;20556;-44
2022/04/09 11:07:15;;;;;;;20.13;15.90;;;;;;;6.70;80.91;100231.59;5070906;28;20657;-46
2022/04/09 11:09:56;;;;;;;17.87;14.27;;;;;;;6.98;81.98;100237.91;5074892;28;20460;-45
2022/04/09 11:12:26;;;;;;;13.73;12.53;;;;;;;7.07;79.02;100233.31;5079325;28;20445;-45
2022/04/09 11:14:57;;;;;;;10.90;10.00;;;;;;;6.62;72.30;100240.47;5078518;28;20433;-46
2022/04/09 11:17:32;;;;;;;12.07;10.80;;;;;;;6.63;74.00;100268.59;5073755;28;20422;-44
2022/04/09 11:20:06;;;;;;;14.00;12.70;;;;;;;6.12;74.54;100294.09;5085668;28;20487;-45
2022/04/09 11:22:36;;;;;;;13.13;12.40;;;;;;;5.74;76.01;100291.56;5091121;28;20472;-45
2022/04/09 11:25:05;;;;;;;14.57;13.57;;;;;;;5.65;78.30;100285.50;5080245;28;20439;-44
2022/04/09 11:27:33;;;;;;;13.90;13.10;;;;;;;5.78;79.13;100291.03;5093893;28;20429;-47
2022/04/09 11:30:03;;;;;;;23.30;14.03;;;;;;;5.71;78.58;100302.50;5088642;28;20461;-45
2022/04/09 11:32:32;;;;;;;16.97;15.47;;;;;;;5.66;82.14;100316.25;5084737;28;20458;-46
2022/04/09 11:35:01;;;;;;;19.17;18.17;;;;;;;5.13;85.15;100316.22;5088021;28;20448;-43
2022/04/09 11:37:30;;;;;;;25.57;22.87;;;;;;;4.85;86.69;100321.09;5074763;28;20521;-44
2022/04/09 11:40:04;;;;;;;25.43;22.87;;;;;;;4.88;89.73;100326.88;5076065;28;20470;-43